createdAt,value
2018-11-03T00:01:57.083Z,5.20
2018-11-03T00:04:25.805Z,5.10
2018-11-03T00:06:54.749Z,5.10
2018-11-03T00:09:23.447Z,5.10
2018-11-03T00:11:52.140Z,5.10
2018-11-03T00:14:20.872Z,5.10
2018-11-03T00:16:49.658Z,5.10
2018-11-03T00:19:18.526Z,5.10
2018-11-03T00:21:47.322Z,5.10
2018-11-03T00:24:16.067Z,5.00
2018-11-03T00:26:44.793Z,5.00
2018-11-03T00:29:13.539Z,5.00
2018-11-03T00:31:42.432Z,4.90
2018-11-03T00:34:11.168Z,4.90
2018-11-03T00:36:39.928Z,4.90
2018-11-03T00:39:10.744Z,4.80
2018-11-03T00:41:39.613Z,4.70
2018-11-03T00:44:09.130Z,4.80
2018-11-03T00:46:37.881Z,4.70
2018-11-03T00:49:06.824Z,4.70
2018-11-03T00:51:35.613Z,4.70
2018-11-03T00:54:04.369Z,4.80
2018-11-03T00:56:33.441Z,4.80
2018-11-03T00:59:02.351Z,4.70
2018-11-03T01:01:31.286Z,4.70
2018-11-03T01:03:59.973Z,4.70
2018-11-03T01:06:29.183Z,4.70
2018-11-03T01:08:57.916Z,4.70
2018-11-03T01:11:26.639Z,4.70
2018-11-03T01:13:55.427Z,4.70
2018-11-03T01:16:24.116Z,4.70
2018-11-03T01:18:52.852Z,4.70
2018-11-03T01:21:21.648Z,4.60
2018-11-03T01:23:50.463Z,4.60
2018-11-03T01:26:19.164Z,4.60
2018-11-03T01:28:48.011Z,4.60
2018-11-03T01:31:16.810Z,4.60
2018-11-03T01:33:45.460Z,4.60
2018-11-03T01:36:14.333Z,4.50
2018-11-03T01:38:43.033Z,4.40
2018-11-03T01:41:11.755Z,4.50
2018-11-03T01:43:40.743Z,4.40
2018-11-03T01:46:09.455Z,4.30
2018-11-03T01:48:38.326Z,4.20
2018-11-03T01:51:07.027Z,4.20
2018-11-03T01:53:35.815Z,4.30
2018-11-03T01:56:04.517Z,4.30
2018-11-03T01:58:33.563Z,4.30
2018-11-03T02:01:02.409Z,4.20
2018-11-03T02:03:31.170Z,4.20
2018-11-03T02:05:59.852Z,4.20
2018-11-03T02:08:28.568Z,4.20
2018-11-03T02:10:57.317Z,4.20
2018-11-03T02:13:26.091Z,4.10
2018-11-03T02:15:54.977Z,4.10
2018-11-03T02:18:23.774Z,4.10
2018-11-03T02:20:52.548Z,4.10
2018-11-03T02:23:21.261Z,4.10
2018-11-03T02:25:50.272Z,4.00
2018-11-03T02:28:19.019Z,4.00
2018-11-03T02:30:47.703Z,3.90
2018-11-03T02:33:16.412Z,3.90
2018-11-03T02:35:45.117Z,3.90
2018-11-03T02:38:13.803Z,3.90
2018-11-03T02:40:42.538Z,3.90
2018-11-03T02:43:11.236Z,3.90
2018-11-03T02:45:40.032Z,3.90
2018-11-03T02:48:08.757Z,3.90
2018-11-03T02:50:37.475Z,3.90
2018-11-03T02:53:06.288Z,3.90
2018-11-03T02:55:34.988Z,3.90
2018-11-03T02:58:03.717Z,3.90
2018-11-03T03:00:32.618Z,3.80
2018-11-03T03:03:01.443Z,3.80
2018-11-03T03:05:30.146Z,3.80
2018-11-03T03:07:58.888Z,3.80
2018-11-03T03:10:27.712Z,3.80
2018-11-03T03:12:56.616Z,3.80
2018-11-03T03:15:25.290Z,3.80
2018-11-03T03:17:53.962Z,3.80
2018-11-03T03:20:22.739Z,3.70
2018-11-03T03:22:51.439Z,3.80
2018-11-03T03:25:20.261Z,3.80
2018-11-03T03:27:49.005Z,3.80
2018-11-03T03:30:17.682Z,3.80
2018-11-03T03:32:46.419Z,3.80
2018-11-03T03:35:15.193Z,3.80
2018-11-03T03:37:43.907Z,3.80
2018-11-03T03:40:12.778Z,3.70
2018-11-03T03:42:41.475Z,3.70
2018-11-03T03:45:10.829Z,3.70
2018-11-03T03:47:39.852Z,3.70
2018-11-03T03:50:09.843Z,3.70
2018-11-03T03:52:38.892Z,3.70
2018-11-03T03:55:08.152Z,3.60
2018-11-03T03:57:37.250Z,3.60
2018-11-03T04:00:07.994Z,3.60
2018-11-03T04:02:36.673Z,3.60
2018-11-03T04:05:05.726Z,3.50
2018-11-03T04:07:34.470Z,3.50
2018-11-03T04:10:03.210Z,3.40
2018-11-03T04:12:31.931Z,3.40
2018-11-03T04:15:00.651Z,3.40
2018-11-03T04:17:29.537Z,3.40
2018-11-03T04:19:58.235Z,3.30
2018-11-03T04:22:27.042Z,3.30
2018-11-03T04:24:56.197Z,3.40
2018-11-03T04:27:24.899Z,3.30
2018-11-03T04:29:53.645Z,3.30
2018-11-03T04:32:22.381Z,3.30
2018-11-03T04:34:51.156Z,3.20
2018-11-03T04:37:19.858Z,3.20
2018-11-03T04:39:48.836Z,3.20
2018-11-03T04:42:17.553Z,3.20
2018-11-03T04:44:46.269Z,3.20
2018-11-03T04:47:14.978Z,3.20
2018-11-03T04:49:43.719Z,3.10
2018-11-03T04:52:12.411Z,3.10
2018-11-03T04:54:41.164Z,3.10
2018-11-03T04:57:09.818Z,3.10
2018-11-03T04:59:38.521Z,3.10
2018-11-03T05:02:07.200Z,3.10
2018-11-03T05:04:36.033Z,3.00
2018-11-03T05:07:05.111Z,3.00
2018-11-03T05:09:34.070Z,3.00
2018-11-03T05:12:02.787Z,3.00
2018-11-03T05:14:31.519Z,3.00
2018-11-03T05:17:00.221Z,3.00
2018-11-03T05:19:29.428Z,3.00
2018-11-03T05:21:58.192Z,3.00
2018-11-03T05:24:26.884Z,2.90
2018-11-03T05:26:55.738Z,2.90
2018-11-03T05:29:24.440Z,2.80
2018-11-03T05:31:53.462Z,2.80
2018-11-03T05:34:22.183Z,2.70
2018-11-03T05:36:51.230Z,2.80
2018-11-03T05:39:19.912Z,2.70
2018-11-03T05:41:48.736Z,2.70
2018-11-03T05:44:17.405Z,2.70
2018-11-03T05:46:46.085Z,2.60
2018-11-03T05:49:14.834Z,2.60
2018-11-03T05:51:43.496Z,2.70
2018-11-03T05:54:12.403Z,2.70
2018-11-03T05:56:41.096Z,2.70
2018-11-03T05:59:09.796Z,2.70
2018-11-03T06:01:38.666Z,2.70
2018-11-03T06:04:07.364Z,2.70
2018-11-03T06:06:36.273Z,2.70
2018-11-03T06:09:06.746Z,2.70
2018-11-03T06:11:35.575Z,2.70
2018-11-03T06:14:04.360Z,2.80
2018-11-03T06:16:33.100Z,2.80
2018-11-03T06:19:01.793Z,2.90
2018-11-03T06:21:30.568Z,2.80
2018-11-03T06:23:59.266Z,2.90
2018-11-03T06:26:28.187Z,2.90
2018-11-03T06:28:56.926Z,2.80
2018-11-03T06:31:25.646Z,2.80
2018-11-03T06:33:54.550Z,2.80
2018-11-03T06:36:23.241Z,2.80
2018-11-03T06:38:51.975Z,2.80
2018-11-03T06:41:20.646Z,2.80
2018-11-03T06:43:49.414Z,2.90
2018-11-03T06:46:18.175Z,2.90
2018-11-03T06:48:46.991Z,2.90
2018-11-03T06:51:15.677Z,2.90
2018-11-03T06:53:44.342Z,2.90
2018-11-03T06:56:13.047Z,2.90
2018-11-03T06:58:41.787Z,2.80
2018-11-03T07:01:10.504Z,2.80
2018-11-03T07:03:39.310Z,2.80
2018-11-03T07:06:07.991Z,2.80
2018-11-03T07:08:36.676Z,2.90
2018-11-03T07:11:05.427Z,2.90
2018-11-03T07:13:34.148Z,2.90
2018-11-03T07:16:02.904Z,2.90
2018-11-03T07:18:31.622Z,2.90
2018-11-03T07:21:00.338Z,2.90
2018-11-03T07:23:29.007Z,2.90
2018-11-03T07:25:57.726Z,2.90
2018-11-03T07:28:26.479Z,2.90
2018-11-03T07:30:56.105Z,2.90
2018-11-03T07:33:24.866Z,3.00
2018-11-03T07:35:53.666Z,3.00
2018-11-03T07:38:22.730Z,3.00
2018-11-03T07:40:51.829Z,3.10
2018-11-03T07:43:20.925Z,3.20
2018-11-03T07:45:49.597Z,3.20
2018-11-03T07:48:18.365Z,3.20
2018-11-03T07:50:47.460Z,3.20
2018-11-03T07:53:16.205Z,3.20
2018-11-03T07:55:44.949Z,3.20
2018-11-03T07:58:13.679Z,3.20
2018-11-03T08:00:42.541Z,3.30
2018-11-03T08:03:11.143Z,3.30
2018-11-03T08:05:39.885Z,3.30
2018-11-03T08:08:08.641Z,3.40
2018-11-03T08:10:37.367Z,3.40
2018-11-03T08:13:06.653Z,3.40
2018-11-03T08:15:35.632Z,3.40
2018-11-03T08:18:04.378Z,3.40
2018-11-03T08:20:33.258Z,3.50
2018-11-03T08:23:01.972Z,3.50
2018-11-03T08:25:30.638Z,3.50
2018-11-03T08:27:59.682Z,3.60
2018-11-03T08:30:28.395Z,3.60
2018-11-03T08:32:57.206Z,3.70
2018-11-03T08:35:25.915Z,3.70
2018-11-03T08:37:54.757Z,3.70
2018-11-03T08:40:23.531Z,3.70
2018-11-03T08:42:52.201Z,3.80
2018-11-03T08:45:21.003Z,3.80
2018-11-03T08:47:49.815Z,3.90
2018-11-03T08:50:18.552Z,3.90
2018-11-03T08:52:47.215Z,4.00
2018-11-03T08:55:15.907Z,4.00
2018-11-03T08:57:44.629Z,4.10
2018-11-03T09:00:14.637Z,4.20
2018-11-03T09:02:43.808Z,4.20
2018-11-03T09:05:13.128Z,4.30
2018-11-03T09:07:41.854Z,4.40
2018-11-03T09:10:12.720Z,4.50
2018-11-03T09:12:41.738Z,4.60
2018-11-03T09:15:11.991Z,4.60
2018-11-03T09:17:41.874Z,4.60
2018-11-03T09:20:11.999Z,4.70
2018-11-03T09:22:41.121Z,4.70
2018-11-03T09:25:13.603Z,4.80
2018-11-03T09:27:43.401Z,4.90
2018-11-03T09:30:14.751Z,4.90
2018-11-03T09:32:43.712Z,5.00
2018-11-03T09:35:13.720Z,5.00
2018-11-03T09:37:42.543Z,5.10
2018-11-03T09:40:13.704Z,5.10
2018-11-03T09:42:43.489Z,5.20
2018-11-03T09:45:12.726Z,5.30
2018-11-03T09:47:42.115Z,5.40
2018-11-03T09:50:12.542Z,5.40
2018-11-03T09:52:41.798Z,5.50
2018-11-03T09:55:14.936Z,5.50
2018-11-03T09:57:44.101Z,5.60
2018-11-03T10:07:02.164Z,5.80
2018-11-03T10:09:31.021Z,5.90
2018-11-03T10:11:59.801Z,6.00
2018-11-03T10:14:28.637Z,6.10
2018-11-03T10:16:57.396Z,6.20
2018-11-03T10:19:26.378Z,6.20
2018-11-03T10:21:55.381Z,6.30
2018-11-03T10:24:24.253Z,6.30
2018-11-03T10:26:53.010Z,6.40
2018-11-03T10:29:21.807Z,6.50
2018-11-03T10:31:50.533Z,6.60
2018-11-03T10:34:19.241Z,6.70
2018-11-03T10:36:48.075Z,6.80
2018-11-03T10:39:16.891Z,6.90
2018-11-03T10:41:45.591Z,7.00
2018-11-03T10:44:14.300Z,7.10
2018-11-03T10:46:42.990Z,7.10
2018-11-03T10:49:11.704Z,7.20
2018-11-03T10:51:40.452Z,7.30
2018-11-03T10:54:09.254Z,7.30
2018-11-03T10:56:37.966Z,7.40
2018-11-03T10:59:06.859Z,7.40
2018-11-03T11:01:41.145Z,7.50
2018-11-03T11:04:15.034Z,7.70
2018-11-03T11:06:48.952Z,7.90
2018-11-03T11:09:22.994Z,8.00
2018-11-03T11:11:57.226Z,8.10
2018-11-03T11:14:25.990Z,8.20
2018-11-03T11:16:54.733Z,8.40
2018-11-03T11:19:23.642Z,8.50
2018-11-03T11:21:52.350Z,8.60
2018-11-03T11:24:21.271Z,8.70
2018-11-03T11:26:49.926Z,8.70
2018-11-03T11:29:18.650Z,8.80
2018-11-03T11:31:47.434Z,9.10
2018-11-03T11:34:16.285Z,9.30
2018-11-03T11:36:45.012Z,9.10
2018-11-03T11:39:13.745Z,9.30
2018-11-03T11:41:42.503Z,9.20
2018-11-03T11:44:11.178Z,9.20
2018-11-03T11:46:39.890Z,9.30
2018-11-03T11:49:08.580Z,9.70
2018-11-03T11:51:37.425Z,9.80
2018-11-03T11:54:06.418Z,10.20
2018-11-03T11:56:35.128Z,10.60
2018-11-03T11:59:03.870Z,11.40
2018-11-03T12:01:33.025Z,11.90
2018-11-03T12:04:01.889Z,12.40
2018-11-03T12:06:30.801Z,12.90
2018-11-03T12:08:59.547Z,13.00
2018-11-03T12:11:28.264Z,12.90
2018-11-03T12:13:57.125Z,13.10
2018-11-03T12:16:25.803Z,13.50
2018-11-03T12:18:54.488Z,13.70
2018-11-03T12:21:23.154Z,14.10
2018-11-03T12:23:51.871Z,14.00
2018-11-03T12:26:20.578Z,14.10
2018-11-03T12:28:49.244Z,14.00
2018-11-03T12:31:17.994Z,14.10
2018-11-03T12:33:47.094Z,14.00
2018-11-03T12:36:15.840Z,14.00
2018-11-03T12:38:44.540Z,13.80
2018-11-03T12:41:13.600Z,13.90
2018-11-03T12:43:42.275Z,13.90
2018-11-03T12:46:10.989Z,14.00
2018-11-03T12:48:39.722Z,14.10
2018-11-03T12:51:08.488Z,14.00
2018-11-03T12:53:37.428Z,13.90
2018-11-03T12:56:06.312Z,14.00
2018-11-03T12:58:35.023Z,14.30
2018-11-03T13:01:03.769Z,14.40
2018-11-03T13:03:32.550Z,14.40
2018-11-03T13:06:01.746Z,14.40
2018-11-03T13:08:30.676Z,14.50
2018-11-03T13:10:59.408Z,14.70
2018-11-03T13:13:28.128Z,14.70
2018-11-03T13:15:56.884Z,15.00
2018-11-03T13:18:25.584Z,15.20
2018-11-03T13:20:54.360Z,15.20
2018-11-03T13:23:23.126Z,15.10
2018-11-03T13:25:51.956Z,14.90
2018-11-03T13:28:20.681Z,14.80
2018-11-03T13:30:49.350Z,14.80
2018-11-03T13:33:18.060Z,14.70
2018-11-03T13:35:46.786Z,14.70
2018-11-03T13:38:15.456Z,14.80
2018-11-03T13:40:44.228Z,14.70
2018-11-03T13:43:12.937Z,14.70
2018-11-03T13:45:41.831Z,14.50
2018-11-03T13:48:10.526Z,14.50
2018-11-03T13:50:39.337Z,14.30
2018-11-03T13:53:08.875Z,14.20
2018-11-03T13:55:37.689Z,14.10
2018-11-03T13:58:06.412Z,14.10
2018-11-03T14:00:35.304Z,14.20
2018-11-03T14:03:04.581Z,14.30
2018-11-03T14:05:33.321Z,14.30
2018-11-03T14:08:02.002Z,14.30
2018-11-03T14:10:30.708Z,14.30
2018-11-03T14:12:59.376Z,14.30
2018-11-03T14:15:28.104Z,14.50
2018-11-03T14:17:56.921Z,14.40
2018-11-03T14:20:25.803Z,14.30
2018-11-03T14:22:54.606Z,14.10
2018-11-03T14:25:23.246Z,14.20
2018-11-03T14:27:51.955Z,14.40
2018-11-03T14:30:20.636Z,14.20
2018-11-03T14:32:49.293Z,14.30
2018-11-03T14:35:17.965Z,14.20
2018-11-03T14:37:46.685Z,14.20
2018-11-03T14:40:16.645Z,14.30
2018-11-03T14:42:46.186Z,14.20
2018-11-03T14:45:15.908Z,13.90
2018-11-03T14:47:44.797Z,13.80
2018-11-03T14:50:13.722Z,13.60
2018-11-03T14:52:43.365Z,13.70
2018-11-03T14:55:12.863Z,13.90
2018-11-03T14:57:41.605Z,13.70
2018-11-03T15:00:13.027Z,13.80
2018-11-03T15:02:42.033Z,13.50
2018-11-03T15:05:11.503Z,13.30
2018-11-03T15:07:40.376Z,13.10
2018-11-03T15:10:10.275Z,12.90
2018-11-03T15:12:39.416Z,12.80
2018-11-03T15:15:09.704Z,12.50
2018-11-03T15:17:38.413Z,12.30
2018-11-03T15:20:08.276Z,12.20
2018-11-03T15:22:37.184Z,12.10
2018-11-03T15:25:07.008Z,12.10
2018-11-03T15:27:36.010Z,11.90
2018-11-03T15:30:05.148Z,11.70
2018-11-03T15:32:33.816Z,11.60
2018-11-03T15:35:02.668Z,11.40
2018-11-03T15:37:31.305Z,11.20
2018-11-03T15:40:00.052Z,11.10
2018-11-03T15:42:28.736Z,11.20
2018-11-03T15:44:57.531Z,11.10
2018-11-03T15:47:26.212Z,11.00
2018-11-03T15:49:54.946Z,11.00
2018-11-03T15:52:23.864Z,10.80
2018-11-03T15:54:52.508Z,10.60
2018-11-03T15:57:21.182Z,10.50
2018-11-03T15:59:49.896Z,10.40
2018-11-03T16:02:18.589Z,10.30
2018-11-03T16:04:47.242Z,10.30
2018-11-03T16:07:15.973Z,10.30
2018-11-03T16:09:44.629Z,10.10
2018-11-03T16:12:13.401Z,10.00
2018-11-03T16:14:42.029Z,9.90
2018-11-03T16:17:10.725Z,9.80
2018-11-03T16:19:39.420Z,9.80
2018-11-03T16:22:08.079Z,9.70
2018-11-03T16:24:36.764Z,9.70
2018-11-03T16:27:06.053Z,9.60
2018-11-03T16:29:34.854Z,9.50
2018-11-03T16:32:03.764Z,9.60
2018-11-03T16:34:33.364Z,9.50
2018-11-03T16:37:02.147Z,9.40
2018-11-03T16:39:30.846Z,9.30
2018-11-03T16:41:59.601Z,9.30
2018-11-03T16:44:28.373Z,9.20
2018-11-03T16:46:57.178Z,9.20
2018-11-03T16:49:25.894Z,9.20
2018-11-03T16:51:54.556Z,9.10
2018-11-03T16:54:27.498Z,9.10
2018-11-03T16:56:56.246Z,9.00
2018-11-03T16:59:24.902Z,9.00
2018-11-03T17:01:53.698Z,8.90
2018-11-03T17:04:22.414Z,8.80
2018-11-03T17:06:51.176Z,8.80
2018-11-03T17:09:19.813Z,8.70
2018-11-03T17:11:48.583Z,8.60
2018-11-03T17:14:17.546Z,8.50
2018-11-03T17:16:46.251Z,8.50
2018-11-03T17:19:14.941Z,8.50
2018-11-03T17:21:43.659Z,8.40
2018-11-03T17:24:12.571Z,8.40
2018-11-03T17:26:41.283Z,8.30
2018-11-03T17:29:09.994Z,8.20
2018-11-03T17:31:38.688Z,8.20
2018-11-03T17:34:07.369Z,8.20
2018-11-03T17:36:36.236Z,8.10
2018-11-03T17:39:07.768Z,8.10
2018-11-03T17:41:36.510Z,8.00
2018-11-03T17:44:05.781Z,8.00
2018-11-03T17:46:34.708Z,7.90
2018-11-03T17:49:03.579Z,7.80
2018-11-03T17:51:32.252Z,7.80
2018-11-03T17:54:00.917Z,7.80
2018-11-03T17:56:29.761Z,7.80
2018-11-03T17:58:58.490Z,7.70
2018-11-03T18:01:27.520Z,7.60
2018-11-03T18:03:56.132Z,7.60
2018-11-03T18:06:25.029Z,7.50
2018-11-03T18:08:53.932Z,7.50
2018-11-03T18:11:22.678Z,7.50
2018-11-03T18:13:51.549Z,7.50
2018-11-03T18:16:20.254Z,7.40
2018-11-03T18:18:49.003Z,7.40
